White River, South Dakota
Current Conditions -  °F | °C
As of 6:53 AM on Tuesday 21 Oct 2014 (Local Time) from KICR Reporting Station
Clear Clear  
Wind Chill: 59°   Ceiling: Unl
Heat Index: 59°   Visibility: 10mi
Dew Point: 39°   Wind: 18mph
Humidity: 48%   Direction: 190°S
Pressure: 29.92"   Gusts: 28mph
Location:  43.57°N, 100.75°W
Report Text: KICR 211253Z AUTO 19016G24KT 10SM CLR 15/04 A2992 RMK AO2 PK WND 20026/1155 SLP126 T01500039
Loading
Personal Weather Stations






























Interactive Weather Map
Tropical Storm Tracking
New forecast layout! Learn more

10-Day Weather Forecast

Advertisements
Track Severe Weather on mobile